ADDS METAR Data INFO
IDs: Format: Raw Decoded Include TAF

Data at: 1320 UTC 11 Dec 2017

KBMG 111253Z 16005KT 10SM CLR M03/M06 A3004 RMK AO2 SLP181 T10281056
KBMG 111153Z 14003KT 10SM BKN100 M04/M06 A3007 RMK AO2 SLP190 T10391061 11017 21067 56006
KBMG 111053Z AUTO 00000KT 10SM CLR M06/M08 A3008 RMK AO2 SLP194 T10611083
KBMG 110953Z AUTO 00000KT 10SM FEW095 M06/M08 A3008 RMK AO2 SLP193 T10561083
KBMG 110853Z AUTO 00000KT 10SM CLR M06/M08 A3009 RMK AO2 SLP196 T10561078 58002
KBMG 110753Z AUTO 00000KT 10SM CLR M04/M08 A3009 RMK AO2 SLP196 T10441078
KBMG 110653Z AUTO 00000KT 10SM CLR M03/M07 A3010 RMK AO2 SLP198 T10331072
KBMG 110553Z AUTO 00000KT 10SM CLR M02/M06 A3009 RMK AO2 SLP197 T10171061 10022 21022 50009
KBMG 110453Z AUTO 31003KT 10SM CLR 00/M06 A3010 RMK AO2 SLP199 T00001061 400441072
KBMG 110353Z AUTO 31004KT 10SM CLR 01/M06 A3010 RMK AO2 SLP198 T00061056
KBMG 110253Z AUTO 29007KT 10SM CLR 02/M06 A3007 RMK AO2 SLP188 T00171056 53015
KBMG 110153Z 29008KT 10SM CLR 02/M05 A3005 RMK AO2 SLP183 T00221050
KBMG 110053Z 27005KT 10SM CLR 02/M06 A3003 RMK AO2 SLP178 T00171056
KBMG 102353Z 26004KT 10SM CLR 02/M06 A3002 RMK AO2 SLP174 T00171056 10044 20017 53018
KBMG 102253Z 25007KT 10SM CLR 03/M06 A3000 RMK AO2 SLP167 T00281056
KBMG 102153Z 23013KT 10SM CLR 03/M06 A2997 RMK AO2 SLP157 T00331061
KBMG 102053Z 23017G24KT 10SM CLR 04/M06 A2996 RMK AO2 SLP154 T00391061 55012
KBMG 101953Z 21012G19KT 10SM CLR 04/M07 A2995 RMK AO2 PK WND 22027/1910 SLP151 T00391067
KBMG 101853Z 21012G18KT 10SM CLR 03/M07 A2995 RMK AO2 SLP150 T00331072
KBMG 101753Z 21014G21KT 10SM CLR 02/M08 A3000 RMK AO2 SLP166 T00221078 10022 21067 58032
KBMG 101653Z 21015G21KT 10SM FEW090 00/M08 A3005 RMK AO2 PK WND 21026/1613 SLP182 T00001083
KBMG 101553Z 23015G23KT 10SM BKN100 M01/M08 A3009 RMK AO2 SLP199 T10111083
KBMG 101453Z 23012KT 10SM OVC110 M03/M08 A3010 RMK AO2 SLP201 T10331083 58005
KBMG 101353Z 21008KT 10SM BKN110 M04/M09 A3010 RMK AO2 SLP203 T10441089
KBMG 101253Z 23007KT 10SM OVC100 M06/M09 A3011 RMK AO2 SLP204 T10561094
KBMG 101153Z 22006KT 10SM SCT100 M07/M10 A3011 RMK AO2 SLP207 T10671100 11050 21072 56003
KBMG 101053Z AUTO 22005KT 10SM CLR M07/M11 A3012 RMK AO2 SLP209 T10671106
KBMG 100953Z AUTO 23005KT 10SM CLR M07/M10 A3011 RMK AO2 SLP207 T10671100
KBMG 100853Z AUTO 23005KT 10SM CLR M07/M11 A3012 RMK AO2 SLP209 T10671106 51000
KBMG 100753Z AUTO 24004KT 10SM CLR M07/M11 A3012 RMK AO2 SLP209 T10721111
KBMG 100653Z AUTO 27004KT 10SM CLR M06/M11 A3012 RMK AO2 SLP210 T10611106
KBMG 100553Z AUTO 29005KT 10SM CLR M05/M11 A3012 RMK AO2 SLP208 T10501106 11011 21050 50006
KBMG 100453Z AUTO 30005KT 10SM CLR M04/M11 A3013 RMK AO2 SLP210 T10391106 400061061
KBMG 100353Z AUTO 30005KT 10SM CLR M03/M10 A3012 RMK AO2 SLP207 T10331100
KBMG 100253Z AUTO 30008G14KT 10SM BKN034 M03/M10 A3010 RMK AO2 SLP203 T10281100 53031
KBMG 100153Z 31008G20KT 10SM BKN060 M02/M10 A3007 RMK AO2 SLP192 T10221100